Time;durP1;ratioP1;P1;durP2;ratioP2;P2;SDS_P1;SDS_P2;PMS_P1;PMS_P2;Temp;Humidity;BMP_temperature;BMP_pressure;BME280_temperature;BME280_humidity;BME280_pressure;Samples;Min_cycle;Max_cycle;Signal;HPM_P1;HPM_P2
2020/12/18 05:01:55;;;;;;;6.88;6.25;;;7.20;99.90;;;;;;5323619;23;20275;-67
2020/12/18 05:04:21;;;;;;;6.75;5.90;;;7.20;99.90;;;;;;4955706;29;20336;-67
2020/12/18 05:06:47;;;;;;;9.40;6.25;;;7.20;99.90;;;;;;4954956;28;20216;-67
2020/12/18 05:09:14;;;;;;;6.93;6.22;;;7.10;99.90;;;;;;4956552;28;20200;-67
2020/12/18 05:11:40;;;;;;;7.50;6.75;;;7.10;99.90;;;;;;4944892;29;20226;-67
2020/12/18 05:14:06;;;;;;;7.65;6.95;;;7.10;99.90;;;;;;4931831;29;20206;-67
2020/12/18 05:16:32;;;;;;;7.05;5.85;;;7.00;99.90;;;;;;4932074;29;20206;-67
2020/12/18 05:19:04;;;;;;;7.38;6.70;;;7.00;99.90;;;;;;4933097;29;20203;-67
2020/12/18 05:21:30;;;;;;;12.98;6.25;;;7.00;99.90;;;;;;4926964;29;20237;-67
2020/12/18 05:23:57;;;;;;;8.77;6.78;;;7.00;99.90;;;;;;4922392;29;20217;-67
2020/12/18 05:26:27;;;;;;;8.98;6.65;;;6.90;99.90;;;;;;4937820;29;20209;-67
2020/12/18 05:29:03;;;;;;;7.88;6.97;;;6.90;99.90;;;;;;4936770;29;20293;-67
2020/12/18 05:31:30;;;;;;;7.95;6.43;;;6.90;99.90;;;;;;4937113;29;20233;-67
2020/12/18 05:34:00;;;;;;;7.47;6.78;;;6.80;99.90;;;;;;4936615;29;20637;-67
2020/12/18 05:36:28;;;;;;;6.70;6.03;;;6.80;99.90;;;;;;4936041;29;20206;-68
2020/12/18 05:38:55;;;;;;;15.77;7.75;;;6.80;99.90;;;;;;4937017;29;20261;-67
2020/12/18 05:41:22;;;;;;;7.70;7.00;;;6.70;99.90;;;;;;4936258;29;20296;-67
2020/12/18 05:43:49;;;;;;;8.65;7.43;;;6.70;99.90;;;;;;4936044;29;20757;-67
2020/12/18 05:46:20;;;;;;;10.45;7.80;;;6.70;99.90;;;;;;4930174;29;20209;-68
2020/12/18 05:48:54;;;;;;;9.07;7.38;;;6.60;99.90;;;;;;4937180;29;20557;-68
2020/12/18 05:51:29;;;;;;;9.77;7.60;;;6.60;99.90;;;;;;4921436;29;20229;-68
2020/12/18 05:54:15;;;;;;;9.25;8.23;;;6.60;99.90;;;;;;4934415;29;20197;-68
2020/12/18 05:56:42;;;;;;;9.25;7.43;;;6.60;99.90;;;;;;4918983;29;20223;-68
2020/12/18 05:59:10;;;;;;;10.30;7.18;;;6.60;99.90;;;;;;4927932;29;20206;-68
2020/12/18 06:01:41;;;;;;;8.05;7.15;;;6.50;99.90;;;;;;4936595;29;20300;-68
2020/12/18 06:04:13;;;;;;;13.45;7.68;;;6.50;99.90;;;;;;4928372;29;20226;-68
2020/12/18 06:06:49;;;;;;;12.73;7.85;;;6.50;99.90;;;;;;4921568;29;20663;-68
2020/12/18 06:09:16;;;;;;;8.45;7.45;;;6.50;99.90;;;;;;4937072;29;20236;-68
2020/12/18 06:11:43;;;;;;;10.23;8.40;;;6.40;99.90;;;;;;4934629;29;20225;-68
2020/12/18 06:14:10;;;;;;;13.98;9.50;;;6.40;99.90;;;;;;4925971;29;20663;-68
2020/12/18 06:16:43;;;;;;;12.20;7.65;;;6.40;99.90;;;;;;4935847;29;20210;-68
2020/12/18 06:19:10;;;;;;;13.60;8.35;;;6.40;99.90;;;;;;4924306;29;20206;-68
2020/12/18 06:21:36;;;;;;;11.00;8.10;;;6.30;99.90;;;;;;4936189;29;20675;-68
2020/12/18 06:24:04;;;;;;;10.15;8.07;;;6.30;99.90;;;;;;4933049;29;20304;-68
2020/12/18 06:26:31;;;;;;;9.05;8.15;;;6.30;99.90;;;;;;4935942;29;20306;-68
2020/12/18 06:29:05;;;;;;;11.68;7.13;;;6.30;99.90;;;;;;4923103;29;20293;-68
2020/12/18 06:31:32;;;;;;;16.88;9.55;;;6.30;99.90;;;;;;4936316;29;20226;-68
2020/12/18 06:34:00;;;;;;;10.20;8.23;;;6.30;99.90;;;;;;4922747;29;20264;-68
2020/12/18 06:36:54;;;;;;;13.20;8.35;;;6.30;99.90;;;;;;4936055;29;20256;-68
2020/12/18 06:39:22;;;;;;;13.60;8.50;;;6.30;99.90;;;;;;4924089;29;20319;-67
2020/12/18 06:41:48;;;;;;;11.88;8.32;;;6.30;99.90;;;;;;4936030;29;20579;-67
2020/12/18 06:44:35;;;;;;;9.75;8.50;;;6.30;99.90;;;;;;4921766;29;20580;-68
2020/12/18 06:47:09;;;;;;;13.13;7.40;;;6.20;99.90;;;;;;4934887;29;20213;-68
2020/12/18 06:50:01;;;;;;;11.85;7.80;;;6.20;99.90;;;;;;4935404;29;20221;-68
2020/12/18 06:52:41;;;;;;;9.75;7.22;;;6.20;99.90;;;;;;4935293;29;20241;-68
2020/12/18 06:55:10;;;;;;;11.35;7.97;;;6.20;99.90;;;;;;4936055;29;20654;-68
2020/12/18 06:57:37;;;;;;;11.57;7.72;;;6.20;99.90;;;;;;4928649;29;20217;-68
2020/12/18 07:00:29;;;;;;;12.68;8.23;;;6.20;99.90;;;;;;4917575;29;20213;-68
2020/12/18 07:02:56;;;;;;;10.98;8.15;;;6.20;99.90;;;;;;4927676;29;20232;-68
2020/12/18 07:05:34;;;;;;;14.05;8.48;;;6.20;99.90;;;;;;4923645;29;20223;-68
2020/12/18 07:08:01;;;;;;;15.90;7.45;;;6.20;99.90;;;;;;4932878;29;20596;-68
2020/12/18 07:10:31;;;;;;;11.20;9.18;;;6.20;99.90;;;;;;4935732;29;20276;-67
2020/12/18 07:12:58;;;;;;;9.65;7.90;;;6.20;99.90;;;;;;4934182;29;20210;-67
2020/12/18 07:15:29;;;;;;;10.15;8.23;;;6.20;99.90;;;;;;4931722;29;20205;-67
2020/12/18 07:17:56;;;;;;;11.75;8.40;;;6.10;99.90;;;;;;4920662;28;20207;-67
2020/12/18 07:20:27;;;;;;;15.05;8.48;;;6.10;99.90;;;;;;4924068;28;20217;-67
2020/12/18 07:22:53;;;;;;;9.93;8.23;;;6.10;99.90;;;;;;4934332;29;20725;-68
2020/12/18 07:25:19;;;;;;;12.85;7.95;;;6.00;99.90;;;;;;4932169;29;20226;-68
2020/12/18 07:27:47;;;;;;;10.75;7.88;;;6.00;99.90;;;;;;4931082;29;20265;-68
2020/12/18 07:30:13;;;;;;;10.85;8.70;;;6.00;99.90;;;;;;4935010;29;20777;-67
2020/12/18 07:32:39;;;;;;;8.70;7.80;;;6.00;99.90;;;;;;4934477;28;20221;-66
2020/12/18 07:35:07;;;;;;;9.65;7.40;;;5.90;99.90;;;;;;4922524;29;20203;-66
2020/12/18 07:37:35;;;;;;;9.48;7.20;;;5.90;99.90;;;;;;4920188;29;20214;-66
2020/12/18 07:40:01;;;;;;;9.00;7.30;;;5.90;99.90;;;;;;4932906;29;20577;-66
2020/12/18 07:42:27;;;;;;;11.85;7.70;;;5.90;99.90;;;;;;4933794;29;20230;-66
2020/12/18 07:45:10;;;;;;;11.00;7.57;;;5.80;99.90;;;;;;4936909;29;20217;-67
2020/12/18 07:47:38;;;;;;;9.30;7.00;;;5.80;99.90;;;;;;4933979;28;20206;-67
2020/12/18 07:50:07;;;;;;;14.65;7.70;;;5.80;99.90;;;;;;4935376;29;20214;-67
2020/12/18 07:52:34;;;;;;;9.18;8.23;;;5.80;99.90;;;;;;4928734;29;20210;-68
2020/12/18 07:55:01;;;;;;;9.90;7.50;;;5.70;99.90;;;;;;4933695;29;20217;-66
2020/12/18 07:57:27;;;;;;;9.75;6.90;;;5.80;99.90;;;;;;4934168;29;20633;-67
2020/12/18 08:00:08;;;;;;;14.65;8.13;;;5.70;99.90;;;;;;4929603;29;20210;-67
2020/12/18 08:02:36;;;;;;;11.45;7.10;;;5.70;99.90;;;;;;4923841;29;20302;-67
2020/12/18 08:05:03;;;;;;;8.65;7.18;;;5.70;99.90;;;;;;4925131;29;20235;-67
2020/12/18 08:07:30;;;;;;;12.20;8.02;;;5.70;99.90;;;;;;4928642;29;20206;-67
2020/12/18 08:09:58;;;;;;;10.50;7.95;;;5.70;99.90;;;;;;4933761;29;20630;-67
2020/12/18 08:12:26;;;;;;;8.05;7.00;;;5.60;99.90;;;;;;4932257;29;20225;-67
2020/12/18 08:15:06;;;;;;;10.25;7.03;;;5.60;99.90;;;;;;4934001;29;20194;-67
2020/12/18 08:17:34;;;;;;;11.70;8.13;;;5.60;99.90;;;;;;4925596;29;20252;-67
2020/12/18 08:20:03;;;;;;;13.07;8.75;;;5.60;99.90;;;;;;4921447;29;20314;-67
2020/12/18 08:22:35;;;;;;;11.65;7.82;;;5.60;99.90;;;;;;4916655;29;20225;-67
2020/12/18 08:25:03;;;;;;;10.25;8.02;;;5.60;99.90;;;;;;4931288;29;20230;-67
2020/12/18 08:27:34;;;;;;;8.23;7.35;;;5.60;99.90;;;;;;4935055;29;20206;-67
2020/12/18 08:30:02;;;;;;;9.00;7.38;;;5.60;99.90;;;;;;4931960;28;20265;-68
2020/12/18 08:32:31;;;;;;;8.18;7.38;;;5.60;99.90;;;;;;4929225;29;20236;-66
2020/12/18 08:35:01;;;;;;;9.75;7.68;;;5.60;99.90;;;;;;4931893;29;20588;-67
2020/12/18 08:37:28;;;;;;;12.05;8.60;;;5.60;99.90;;;;;;4933555;29;20714;-67
2020/12/18 08:39:55;;;;;;;10.88;7.63;;;5.60;99.90;;;;;;4929556;29;20276;-68
2020/12/18 08:42:21;;;;;;;11.57;7.80;;;5.60;99.90;;;;;;4915348;29;20230;-67
2020/12/18 08:44:48;;;;;;;8.25;7.45;;;5.70;99.90;;;;;;4933642;29;20228;-67
2020/12/18 08:47:19;;;;;;;19.38;15.32;;;5.70;99.90;;;;;;4934340;29;20217;-67
2020/12/18 08:49:45;;;;;;;9.82;7.80;;;5.70;99.90;;;;;;4917092;29;20242;-67
2020/12/18 08:52:12;;;;;;;7.32;6.60;;;5.80;99.90;;;;;;4929858;29;20225;-67
2020/12/18 08:54:39;;;;;;;6.85;6.18;;;5.80;99.90;;;;;;4933697;29;20689;-67
2020/12/18 08:57:24;;;;;;;9.93;7.28;;;5.90;99.90;;;;;;4921083;29;20206;-67
2020/12/18 09:00:04;;;;;;;6.93;6.10;;;5.90;99.90;;;;;;4914927;29;20301;-67
2020/12/18 09:02:31;;;;;;;7.70;6.28;;;6.00;99.90;;;;;;4926385;29;20229;-68
2020/12/18 09:05:18;;;;;;;8.98;7.38;;;6.00;99.90;;;;;;4933708;28;20237;-68
2020/12/18 09:07:49;;;;;;;7.97;6.93;;;6.00;99.90;;;;;;4934347;29;20689;-67
2020/12/18 09:10:33;;;;;;;7.43;6.75;;;6.00;99.90;;;;;;4934727;29;20209;-67
2020/12/18 09:13:16;;;;;;;7.82;6.60;;;6.10;99.90;;;;;;4927838;29;20239;-67
2020/12/18 09:15:44;;;;;;;6.78;6.10;;;6.20;99.90;;;;;;4923372;29;20206;-67
2020/12/18 09:18:12;;;;;;;6.70;5.65;;;6.20;99.90;;;;;;4933869;29;20218;-69
2020/12/18 09:20:40;;;;;;;10.10;6.45;;;6.30;99.90;;;;;;4927957;28;20664;-67
2020/12/18 09:23:09;;;;;;;7.30;5.75;;;6.30;99.90;;;;;;4932633;29;20210;-67
2020/12/18 09:25:37;;;;;;;6.07;5.57;;;6.40;99.90;;;;;;4923759;29;20222;-67
2020/12/18 09:28:04;;;;;;;7.10;6.50;;;6.40;99.90;;;;;;4934509;29;20313;-67
2020/12/18 09:30:31;;;;;;;7.90;6.45;;;6.50;99.90;;;;;;4930623;29;20581;-67
2020/12/18 09:33:10;;;;;;;7.07;5.65;;;6.50;99.90;;;;;;4935518;29;20277;-67
2020/12/18 09:35:37;;;;;;;5.57;5.07;;;6.60;99.90;;;;;;4934420;29;20209;-67
2020/12/18 09:38:03;;;;;;;6.95;5.78;;;6.70;99.90;;;;;;4938077;29;20225;-67
2020/12/18 09:40:30;;;;;;;9.00;5.60;;;6.70;99.90;;;;;;4938178;29;20229;-67
2020/12/18 09:42:57;;;;;;;5.85;5.35;;;6.70;99.90;;;;;;4939354;29;20213;-68
2020/12/18 09:45:23;;;;;;;6.72;4.97;;;6.80;99.90;;;;;;4936618;29;20230;-68
2020/12/18 09:47:49;;;;;;;10.20;5.57;;;6.80;99.90;;;;;;4918996;29;20581;-67
2020/12/18 09:50:15;;;;;;;5.22;4.80;;;6.90;99.90;;;;;;4919976;28;20566;-67
2020/12/18 09:52:42;;;;;;;5.50;5.10;;;6.90;99.90;;;;;;4929966;29;20210;-67
2020/12/18 09:55:08;;;;;;;5.03;4.60;;;7.00;99.90;;;;;;4928223;29;20206;-67
2020/12/18 09:57:35;;;;;;;4.70;4.28;;;7.00;99.90;;;;;;4922845;29;20206;-68
2020/12/18 10:00:03;;;;;;;5.85;5.35;;;7.10;99.90;;;;;;4936288;29;20683;-68
2020/12/18 10:02:29;;;;;;;5.03;4.60;;;7.10;99.90;;;;;;4935856;28;20316;-68
2020/12/18 10:04:56;;;;;;;5.05;4.75;;;7.20;99.90;;;;;;4936184;29;20229;-68
2020/12/18 10:07:22;;;;;;;6.40;5.30;;;7.30;99.90;;;;;;4937210;29;20563;-68
2020/12/18 10:09:48;;;;;;;5.85;4.50;;;7.30;99.90;;;;;;4936108;29;20203;-68
2020/12/18 10:12:14;;;;;;;6.78;4.90;;;7.40;99.90;;;;;;4936281;29;20233;-68
2020/12/18 10:14:41;;;;;;;4.82;4.40;;;7.50;99.90;;;;;;4935923;28;20209;-68
2020/12/18 10:17:08;;;;;;;4.32;4.13;;;7.50;99.90;;;;;;4936381;29;20561;-68
2020/12/18 10:19:35;;;;;;;4.50;3.70;;;7.60;99.90;;;;;;4934125;29;20210;-68
2020/12/18 10:22:01;;;;;;;4.57;4.18;;;7.70;99.90;;;;;;4936255;29;20257;-68
2020/12/18 10:24:27;;;;;;;3.90;3.60;;;7.70;99.90;;;;;;4934436;29;20226;-68
2020/12/18 10:26:54;;;;;;;4.38;4.10;;;7.70;99.90;;;;;;4920185;29;20202;-68
2020/12/18 10:29:20;;;;;;;5.13;3.15;;;7.80;99.90;;;;;;4933549;29;20276;-67
2020/12/18 10:31:51;;;;;;;4.97;3.75;;;7.80;99.90;;;;;;4935871;29;20636;-67
2020/12/18 10:34:18;;;;;;;4.65;4.30;;;7.80;99.90;;;;;;4936404;29;20316;-66
2020/12/18 10:36:44;;;;;;;3.88;3.55;;;7.90;99.90;;;;;;4936155;29;20306;-66
2020/12/18 10:39:10;;;;;;;6.70;3.30;;;7.90;99.90;;;;;;4934644;29;20894;-68
2020/12/18 10:41:38;;;;;;;3.67;3.22;;;7.90;99.90;;;;;;4918923;29;20317;-67
2020/12/18 10:44:05;;;;;;;3.45;3.35;;;7.90;99.90;;;;;;4916617;29;20221;-67
2020/12/18 10:46:32;;;;;;;4.30;3.90;;;7.90;99.90;;;;;;4932959;29;20286;-66
2020/12/18 10:48:59;;;;;;;4.90;3.45;;;7.90;99.90;;;;;;4928895;28;20297;-66
2020/12/18 10:51:25;;;;;;;3.33;3.13;;;8.00;99.90;;;;;;4931712;29;20226;-67
2020/12/18 10:53:51;;;;;;;4.32;4.05;;;7.90;99.90;;;;;;4935872;29;20232;-67
2020/12/18 10:56:17;;;;;;;4.90;3.95;;;8.00;99.90;;;;;;4935638;29;20210;-68
2020/12/18 10:58:43;;;;;;;3.53;3.33;;;8.00;99.90;;;;;;4935858;29;20206;-67
2020/12/18 11:01:09;;;;;;;3.67;3.47;;;8.10;99.90;;;;;;4936629;29;20590;-67
2020/12/18 11:03:36;;;;;;;3.45;2.90;;;8.10;99.90;;;;;;4936125;29;20253;-68
2020/12/18 11:06:04;;;;;;;3.67;3.47;;;8.20;99.90;;;;;;4935556;29;20246;-67
2020/12/18 11:08:30;;;;;;;3.85;3.55;;;8.30;99.90;;;;;;4930405;29;20214;-67
2020/12/18 11:10:56;;;;;;;2.75;2.58;;;8.40;99.90;;;;;;4929563;29;20285;-68
2020/12/18 11:13:22;;;;;;;3.33;3.13;;;8.40;99.90;;;;;;4934308;28;20214;-68
2020/12/18 11:15:49;;;;;;;3.53;3.25;;;8.40;99.90;;;;;;4936161;29;20206;-67
2020/12/18 11:18:15;;;;;;;3.20;3.00;;;8.40;99.90;;;;;;4933716;29;20206;-67
2020/12/18 11:20:41;;;;;;;3.20;3.08;;;8.40;99.90;;;;;;4935162;29;20229;-67
2020/12/18 11:23:08;;;;;;;3.72;3.42;;;8.40;99.90;;;;;;4935211;29;20213;-68
2020/12/18 11:25:34;;;;;;;6.88;3.08;;;8.40;99.90;;;;;;4935719;29;20229;-67
2020/12/18 11:28:00;;;;;;;4.57;3.15;;;8.40;99.90;;;;;;4931217;28;20217;-67
2020/12/18 11:30:26;;;;;;;2.53;2.33;;;8.50;99.90;;;;;;4935322;29;20523;-67
2020/12/18 11:32:52;;;;;;;3.15;2.95;;;8.40;99.90;;;;;;4933698;29;20225;-67
2020/12/18 11:35:19;;;;;;;3.20;2.75;;;8.50;99.90;;;;;;4935479;29;20237;-67
2020/12/18 11:37:45;;;;;;;3.53;3.28;;;8.50;99.90;;;;;;4933335;28;20244;-67
2020/12/18 11:40:12;;;;;;;3.50;3.03;;;8.60;99.90;;;;;;4916281;29;20754;-67
2020/12/18 11:42:38;;;;;;;2.85;2.72;;;8.60;99.90;;;;;;4927495;29;20221;-67
2020/12/18 11:45:04;;;;;;;3.17;2.90;;;8.60;99.90;;;;;;4935140;29;20252;-67
2020/12/18 11:47:30;;;;;;;2.75;2.65;;;8.60;99.90;;;;;;4934111;29;20206;-69
2020/12/18 11:49:57;;;;;;;6.80;3.30;;;8.70;99.90;;;;;;4916335;29;20269;-66
2020/12/18 11:52:23;;;;;;;3.35;2.60;;;8.70;99.90;;;;;;4925519;29;20304;-66
2020/12/18 11:54:49;;;;;;;2.78;2.67;;;8.80;99.90;;;;;;4930660;29;20210;-66
2020/12/18 11:57:16;;;;;;;3.00;2.90;;;8.80;99.90;;;;;;4935182;29;20599;-67
2020/12/18 11:59:42;;;;;;;3.00;2.90;;;8.80;99.90;;;;;;4916727;29;20215;-67
2020/12/18 12:02:08;;;;;;;3.95;2.90;;;8.80;99.90;;;;;;4928764;29;20238;-67
2020/12/18 12:04:34;;;;;;;4.13;2.53;;;8.80;99.90;;;;;;4924394;28;20379;-67
2020/12/18 12:07:01;;;;;;;2.88;2.67;;;8.70;99.90;;;;;;4921394;29;20265;-67
2020/12/18 12:09:27;;;;;;;3.15;3.05;;;8.70;99.90;;;;;;4914980;29;20313;-68
2020/12/18 12:11:53;;;;;;;6.30;3.00;;;8.70;99.90;;;;;;4921301;29;20796;-67
2020/12/18 12:14:20;;;;;;;3.63;3.10;;;8.70;99.90;;;;;;4926641;29;20213;-67
2020/12/18 12:16:47;;;;;;;2.80;2.70;;;8.70;99.90;;;;;;4929480;29;20210;-66
2020/12/18 12:19:13;;;;;;;2.70;2.50;;;8.70;99.90;;;;;;4915433;28;20229;-67
2020/12/18 12:21:39;;;;;;;3.72;3.42;;;8.70;99.90;;;;;;4918560;29;20230;-67
2020/12/18 12:24:06;;;;;;;2.42;2.30;;;8.80;99.90;;;;;;4929695;29;20210;-67
2020/12/18 12:26:33;;;;;;;2.50;2.40;;;8.80;99.90;;;;;;4929579;29;20639;-68
2020/12/18 12:28:59;;;;;;;5.47;2.80;;;8.80;99.90;;;;;;4920844;29;20283;-67
2020/12/18 12:31:26;;;;;;;2.85;2.60;;;8.80;99.90;;;;;;4931752;28;20233;-68
2020/12/18 12:33:52;;;;;;;3.63;2.95;;;8.80;99.90;;;;;;4930127;29;20205;-68
2020/12/18 12:36:19;;;;;;;2.42;2.42;;;8.80;99.90;;;;;;4924412;29;20210;-68
2020/12/18 12:38:45;;;;;;;2.72;2.63;;;8.80;99.90;;;;;;4934175;29;20636;-68
2020/12/18 12:41:11;;;;;;;4.05;2.78;;;8.90;99.90;;;;;;4920596;29;20583;-68
2020/12/18 12:43:38;;;;;;;2.97;2.63;;;9.00;99.90;;;;;;4926602;29;20221;-67
2020/12/18 12:46:04;;;;;;;2.50;2.40;;;9.00;99.90;;;;;;4920817;29;20245;-67
2020/12/18 12:48:31;;;;;;;3.10;2.80;;;9.10;99.90;;;;;;4914952;29;20207;-67
2020/12/18 12:50:58;;;;;;;2.97;2.60;;;9.10;99.90;;;;;;4931475;28;20234;-67
2020/12/18 12:53:24;;;;;;;2.75;2.65;;;9.10;99.90;;;;;;4931936;29;20214;-67
2020/12/18 12:55:50;;;;;;;2.65;2.20;;;9.10;99.90;;;;;;4930768;29;20256;-67
2020/12/18 12:58:17;;;;;;;2.85;2.65;;;9.10;99.90;;;;;;4933637;29;20213;-67
2020/12/18 13:00:43;;;;;;;4.00;2.30;;;9.10;99.90;;;;;;4920096;29;20400;-67
2020/12/18 13:03:10;;;;;;;3.65;2.15;;;9.10;99.90;;;;;;4932081;29;20210;-67
2020/12/18 13:05:37;;;;;;;5.15;2.55;;;9.10;99.90;;;;;;4931407;29;20237;-67
2020/12/18 13:08:04;;;;;;;2.90;2.60;;;9.10;99.90;;;;;;4937974;29;20206;-69
2020/12/18 13:10:31;;;;;;;2.63;2.53;;;9.10;99.90;;;;;;4937266;29;20640;-68
2020/12/18 13:12:57;;;;;;;4.90;3.10;;;9.10;99.90;;;;;;4932057;29;20313;-68
2020/12/18 13:15:23;;;;;;;3.17;2.25;;;9.10;99.90;;;;;;4936112;29;20214;-68
2020/12/18 13:17:50;;;;;;;2.50;2.30;;;9.10;99.90;;;;;;4935766;29;20245;-67
2020/12/18 13:20:16;;;;;;;3.00;2.83;;;9.10;99.90;;;;;;4937537;29;20321;-67
2020/12/18 13:22:43;;;;;;;2.50;2.30;;;9.00;99.90;;;;;;4934771;29;20226;-67
2020/12/18 13:25:09;;;;;;;2.97;2.65;;;9.00;99.90;;;;;;4938036;29;20309;-69
2020/12/18 13:27:35;;;;;;;6.10;3.33;;;9.00;99.90;;;;;;4936115;29;20221;-67
2020/12/18 13:30:01;;;;;;;4.13;3.17;;;9.00;99.90;;;;;;4934667;29;20206;-67
2020/12/18 13:32:27;;;;;;;5.22;2.30;;;9.00;99.90;;;;;;4933353;29;20597;-67
2020/12/18 13:34:53;;;;;;;4.10;2.50;;;9.00;99.90;;;;;;4934614;29;20528;-67
2020/12/18 13:37:19;;;;;;;2.67;2.53;;;9.00;99.90;;;;;;4936134;28;20214;-67
2020/12/18 13:39:46;;;;;;;2.25;2.25;;;9.00;99.90;;;;;;4937200;29;20217;-67
2020/12/18 13:42:17;;;;;;;2.85;2.60;;;9.00;99.90;;;;;;4933548;29;20251;-68
2020/12/18 13:44:43;;;;;;;3.17;3.00;;;8.90;99.90;;;;;;4936859;29;20238;-67
2020/12/18 13:47:09;;;;;;;3.08;2.25;;;8.90;99.90;;;;;;4935359;28;20218;-67
2020/12/18 13:49:35;;;;;;;2.50;2.40;;;8.90;99.90;;;;;;4936503;29;20214;-67
2020/12/18 13:52:01;;;;;;;2.42;2.33;;;8.80;99.90;;;;;;4933769;29;20236;-67
2020/12/18 13:54:27;;;;;;;2.22;2.10;;;8.80;99.90;;;;;;4935787;29;20213;-67
2020/12/18 13:56:54;;;;;;;5.82;2.58;;;8.80;99.90;;;;;;4937305;29;20213;-68
2020/12/18 13:59:21;;;;;;;2.70;2.60;;;8.80;99.90;;;;;;4929237;29;20221;-67
2020/12/18 14:01:47;;;;;;;3.72;3.13;;;8.70;99.90;;;;;;4925463;29;20245;-68
2020/12/18 14:04:13;;;;;;;3.67;3.38;;;8.70;99.90;;;;;;4936188;29;20874;-67
2020/12/18 14:06:40;;;;;;;3.25;3.05;;;8.70;99.90;;;;;;4936151;29;20245;-68
2020/12/18 14:09:06;;;;;;;6.32;3.35;;;8.70;99.90;;;;;;4935936;29;20224;-67
2020/12/18 14:11:36;;;;;;;1.90;1.80;;;8.70;99.90;;;;;;4933195;28;20234;-67
2020/12/18 14:14:04;;;;;;;2.00;2.00;;;8.70;99.90;;;;;;4921522;29;20235;-67
2020/12/18 14:16:30;;;;;;;3.30;3.10;;;8.70;99.90;;;;;;4936841;29;20301;-67
2020/12/18 14:18:56;;;;;;;3.47;3.28;;;8.70;99.90;;;;;;4935565;29;20213;-67
2020/12/18 14:21:22;;;;;;;3.30;3.00;;;8.60;99.90;;;;;;4932236;29;20226;-67
2020/12/18 14:23:48;;;;;;;4.63;3.00;;;8.50;99.90;;;;;;4934562;29;20218;-67
2020/12/18 14:26:14;;;;;;;3.60;3.38;;;8.50;99.90;;;;;;4933923;29;20229;-67
2020/12/18 14:28:42;;;;;;;3.28;2.75;;;8.40;99.90;;;;;;4926861;29;20273;-67
2020/12/18 14:31:09;;;;;;;3.22;3.05;;;8.40;99.90;;;;;;4931839;29;20285;-67
2020/12/18 14:33:35;;;;;;;2.70;2.60;;;8.40;99.90;;;;;;4932112;29;20245;-67
2020/12/18 14:36:02;;;;;;;4.32;2.90;;;8.30;99.90;;;;;;4936417;29;20210;-67
2020/12/18 14:38:28;;;;;;;9.32;7.45;;;8.30;99.90;;;;;;4924279;28;20222;-67
2020/12/18 14:40:54;;;;;;;5.78;3.40;;;8.30;99.90;;;;;;4918440;29;20234;-67
2020/12/18 14:43:20;;;;;;;4.60;3.80;;;8.30;99.90;;;;;;4934022;29;20210;-67
2020/12/18 14:45:46;;;;;;;3.65;3.45;;;8.30;99.90;;;;;;4936219;29;20316;-67
2020/12/18 14:48:13;;;;;;;3.33;2.83;;;8.20;99.90;;;;;;4933335;29;20229;-67
2020/12/18 14:50:42;;;;;;;3.13;2.92;;;8.20;99.90;;;;;;4936176;29;20238;-67
2020/12/18 14:53:09;;;;;;;3.08;2.88;;;8.10;99.90;;;;;;4934316;29;20582;-67
2020/12/18 14:55:35;;;;;;;3.80;3.00;;;8.10;99.90;;;;;;4936264;29;20291;-67
2020/12/18 14:58:01;;;;;;;3.15;2.92;;;8.00;99.90;;;;;;4931663;29;20214;-67
2020/12/18 15:00:27;;;;;;;3.28;2.88;;;8.00;99.90;;;;;;4929938;29;20238;-69
2020/12/18 15:02:53;;;;;;;3.03;2.92;;;8.00;99.90;;;;;;4933042;29;20214;-67
2020/12/18 15:05:20;;;;;;;3.30;3.00;;;7.90;99.90;;;;;;4936125;29;20234;-67
2020/12/18 15:07:46;;;;;;;3.45;3.20;;;7.90;99.90;;;;;;4932361;29;20272;-67
2020/12/18 15:10:12;;;;;;;3.78;3.40;;;7.80;99.90;;;;;;4934296;29;20210;-67
2020/12/18 15:12:38;;;;;;;4.47;3.40;;;7.80;99.90;;;;;;4931056;29;20205;-67
2020/12/18 15:15:04;;;;;;;4.55;3.80;;;7.80;99.90;;;;;;4931910;29;20584;-67
2020/12/18 15:17:31;;;;;;;4.22;3.60;;;7.70;99.90;;;;;;4935032;29;20221;-67
2020/12/18 15:19:57;;;;;;;4.30;3.90;;;7.70;99.90;;;;;;4932766;29;20345;-67
2020/12/18 15:22:24;;;;;;;4.30;3.72;;;7.60;99.90;;;;;;4922847;29;20233;-67
2020/12/18 15:24:50;;;;;;;3.80;3.45;;;7.60;99.90;;;;;;4921402;29;20231;-68
2020/12/18 15:27:16;;;;;;;7.55;4.05;;;7.60;99.90;;;;;;4931765;29;20222;-68
2020/12/18 15:29:42;;;;;;;4.22;3.85;;;7.50;99.90;;;;;;4929867;29;20252;-68
2020/12/18 15:32:08;;;;;;;4.45;4.05;;;7.50;99.90;;;;;;4928479;28;20265;-67
2020/12/18 15:34:35;;;;;;;5.20;3.97;;;7.40;99.90;;;;;;4933705;29;20576;-67
2020/12/18 15:37:02;;;;;;;5.82;4.30;;;7.40;99.90;;;;;;4923218;29;20265;-67
2020/12/18 15:39:31;;;;;;;4.35;3.90;;;7.40;99.90;;;;;;4924583;29;20229;-67
2020/12/18 15:41:57;;;;;;;4.93;4.38;;;7.40;99.90;;;;;;4924310;29;20229;-68
2020/12/18 15:44:24;;;;;;;4.32;3.90;;;7.30;99.90;;;;;;4926179;29;20210;-67
2020/12/18 15:46:51;;;;;;;6.50;4.68;;;7.30;99.90;;;;;;4916283;29;20237;-67
2020/12/18 15:49:17;;;;;;;4.53;4.10;;;7.30;99.90;;;;;;4916270;29;20218;-67
2020/12/18 15:51:43;;;;;;;7.75;5.30;;;7.30;99.90;;;;;;4929593;29;20238;-67
2020/12/18 15:54:10;;;;;;;5.32;4.90;;;7.30;99.90;;;;;;4930036;29;20210;-68
2020/12/18 15:56:37;;;;;;;5.70;5.20;;;7.30;99.90;;;;;;4930551;29;20218;-67
2020/12/18 15:59:03;;;;;;;5.22;4.80;;;7.20;99.90;;;;;;4929344;29;20261;-67
2020/12/18 16:01:29;;;;;;;5.10;4.75;;;7.20;99.90;;;;;;4916826;29;20695;-67
2020/12/18 16:03:55;;;;;;;5.25;4.85;;;7.20;99.90;;;;;;4923437;29;20217;-66
2020/12/18 16:06:21;;;;;;;4.78;4.45;;;7.20;99.90;;;;;;4931790;28;20284;-66
2020/12/18 16:08:48;;;;;;;5.15;4.75;;;7.20;99.90;;;;;;4929355;29;20266;-67
2020/12/18 16:11:14;;;;;;;5.03;4.63;;;7.20;99.90;;;;;;4916282;29;20305;-67
2020/12/18 16:13:41;;;;;;;4.85;4.45;;;7.10;99.90;;;;;;4926925;29;20285;-68
2020/12/18 16:16:07;;;;;;;5.97;5.07;;;7.10;99.90;;;;;;4928806;29;20218;-68
2020/12/18 16:18:34;;;;;;;5.22;4.85;;;7.10;99.90;;;;;;4930729;29;20214;-67
2020/12/18 16:21:00;;;;;;;5.82;5.30;;;7.10;99.90;;;;;;4929920;29;20256;-67
2020/12/18 16:23:26;;;;;;;6.40;5.35;;;7.10;99.90;;;;;;4928132;29;20224;-67
2020/12/18 16:25:53;;;;;;;7.93;5.28;;;7.10;99.90;;;;;;4912794;29;20269;-67
2020/12/18 16:28:19;;;;;;;5.38;5.07;;;7.00;99.90;;;;;;4927738;29;20273;-67
2020/12/18 16:30:46;;;;;;;6.22;5.68;;;7.00;99.90;;;;;;4928277;29;20234;-67
2020/12/18 16:33:13;;;;;;;6.65;6.03;;;7.00;99.90;;;;;;4929104;29;20340;-68
2020/12/18 16:35:39;;;;;;;6.63;5.43;;;7.00;99.90;;;;;;4931409;29;20214;-66
2020/12/18 16:38:05;;;;;;;8.40;5.43;;;6.90;99.90;;;;;;4926607;29;20214;-66
2020/12/18 16:40:31;;;;;;;7.28;6.55;;;6.90;99.90;;;;;;4914037;29;20375;-66
2020/12/18 16:42:57;;;;;;;7.18;6.60;;;6.90;99.90;;;;;;4929882;29;20233;-66
2020/12/18 16:45:23;;;;;;;9.27;5.85;;;6.90;99.90;;;;;;4932501;29;20225;-67
2020/12/18 16:47:51;;;;;;;6.75;5.60;;;6.80;99.90;;;;;;4935021;29;20217;-67
2020/12/18 16:50:17;;;;;;;7.63;6.53;;;6.80;99.90;;;;;;4930705;29;20228;-67
2020/12/18 16:52:43;;;;;;;6.40;5.90;;;6.80;99.90;;;;;;4934114;29;20257;-68
2020/12/18 16:55:09;;;;;;;6.68;6.13;;;6.80;99.90;;;;;;4928148;29;20336;-68
2020/12/18 16:57:35;;;;;;;7.50;5.65;;;6.70;99.90;;;;;;4929829;29;20214;-68
2020/12/18 17:00:03;;;;;;;6.90;5.63;;;6.70;99.90;;;;;;4926776;28;20225;-68
2020/12/18 17:02:29;;;;;;;10.13;5.93;;;6.70;99.90;;;;;;4932619;29;20728;-68
2020/12/18 17:04:56;;;;;;;6.90;6.07;;;6.70;99.90;;;;;;4920981;29;20600;-68
2020/12/18 17:07:25;;;;;;;10.50;6.47;;;6.60;99.90;;;;;;4932877;29;20209;-68
2020/12/18 17:09:52;;;;;;;6.85;6.25;;;6.60;99.90;;;;;;4919550;29;20209;-68
2020/12/18 17:12:18;;;;;;;7.97;6.65;;;6.60;99.90;;;;;;4924126;29;20230;-68
2020/12/18 17:14:44;;;;;;;7.10;6.53;;;6.60;99.90;;;;;;4916984;29;20215;-68
2020/12/18 17:17:10;;;;;;;6.60;5.90;;;6.60;99.90;;;;;;4934324;29;20642;-68
2020/12/18 17:19:36;;;;;;;6.55;5.93;;;6.50;99.90;;;;;;4933791;29;20575;-69
2020/12/18 17:22:04;;;;;;;12.93;6.57;;;6.50;99.90;;;;;;4914943;28;20388;-67
2020/12/18 17:24:30;;;;;;;11.32;7.32;;;6.50;99.90;;;;;;4926165;29;20317;-67
2020/12/18 17:26:56;;;;;;;6.50;6.00;;;6.50;99.90;;;;;;4920621;29;20245;-68
2020/12/18 17:29:22;;;;;;;8.95;7.18;;;6.50;99.90;;;;;;4932156;29;20210;-67
2020/12/18 17:31:48;;;;;;;6.25;5.70;;;6.50;99.90;;;;;;4926038;29;20234;-69
2020/12/18 17:34:15;;;;;;;8.10;6.45;;;6.50;99.90;;;;;;4931304;29;20218;-67
2020/12/18 17:36:43;;;;;;;6.72;6.13;;;6.40;99.90;;;;;;4933643;28;20526;-67
2020/12/18 17:39:09;;;;;;;8.63;6.35;;;6.40;99.90;;;;;;4929594;29;20217;-67
2020/12/18 17:41:37;;;;;;;7.68;6.93;;;6.40;99.90;;;;;;4922385;29;20237;-67
2020/12/18 17:44:03;;;;;;;7.20;6.50;;;6.40;99.90;;;;;;4929808;29;20214;-67
2020/12/18 17:46:29;;;;;;;8.00;6.50;;;6.40;99.90;;;;;;4919524;29;20353;-67
2020/12/18 17:48:56;;;;;;;10.20;6.68;;;6.40;99.90;;;;;;4935398;29;20210;-66
2020/12/18 17:51:22;;;;;;;6.50;6.00;;;6.40;99.90;;;;;;4929442;28;21878;-67
2020/12/18 17:53:49;;;;;;;7.90;7.05;;;6.30;99.90;;;;;;4922704;29;20286;-67
2020/12/18 17:56:16;;;;;;;6.57;5.80;;;6.30;99.90;;;;;;4928022;29;20273;-67
2020/12/18 17:58:43;;;;;;;7.18;6.47;;;6.30;99.90;;;;;;4930371;29;20276;-67